sensor_id;sensor_type;location;lat;lon;timestamp;P1;durP1;ratioP1;P2;durP2;ratioP2
28926;SDS011;16038;47.692;9.400;2024-03-23T00:55:54;10.82;;;7.25;;
28926;SDS011;16038;47.692;9.400;2024-03-23T00:58:20;12.95;;;8.13;;
28926;SDS011;16038;47.692;9.400;2024-03-23T01:00:45;10.63;;;7.18;;
28926;SDS011;16038;47.692;9.400;2024-03-23T01:03:11;10.00;;;7.22;;
28926;SDS011;16038;47.692;9.400;2024-03-23T01:05:36;14.15;;;7.68;;
28926;SDS011;16038;47.692;9.400;2024-03-23T01:08:01;18.85;;;7.75;;
28926;SDS011;16038;47.692;9.400;2024-03-23T01:10:27;10.57;;;6.95;;
28926;SDS011;16038;47.692;9.400;2024-03-23T01:12:52;13.18;;;7.65;;
28926;SDS011;16038;47.692;9.400;2024-03-23T01:15:18;12.80;;;7.78;;
28926;SDS011;16038;47.692;9.400;2024-03-23T01:17:43;11.15;;;8.25;;
28926;SDS011;16038;47.692;9.400;2024-03-23T01:20:08;16.20;;;8.80;;
28926;SDS011;16038;47.692;9.400;2024-03-23T01:22:34;12.73;;;7.45;;
28926;SDS011;16038;47.692;9.400;2024-03-23T01:24:59;12.32;;;8.32;;
28926;SDS011;16038;47.692;9.400;2024-03-23T01:27:25;12.40;;;7.70;;
28926;SDS011;16038;47.692;9.400;2024-03-23T01:29:50;10.30;;;7.28;;
28926;SDS011;16038;47.692;9.400;2024-03-23T01:32:17;13.43;;;7.90;;
28926;SDS011;16038;47.692;9.400;2024-03-23T01:34:43;11.55;;;7.72;;
28926;SDS011;16038;47.692;9.400;2024-03-23T01:37:08;8.98;;;7.00;;
28926;SDS011;16038;47.692;9.400;2024-03-23T01:39:34;12.00;;;7.60;;
28926;SDS011;16038;47.692;9.400;2024-03-23T01:41:59;9.48;;;6.47;;
28926;SDS011;16038;47.692;9.400;2024-03-23T01:44:25;9.27;;;7.18;;
28926;SDS011;16038;47.692;9.400;2024-03-23T01:46:50;11.88;;;6.28;;
28926;SDS011;16038;47.692;9.400;2024-03-23T01:49:16;11.30;;;7.53;;
28926;SDS011;16038;47.692;9.400;2024-03-23T01:51:42;11.43;;;7.38;;
28926;SDS011;16038;47.692;9.400;2024-03-23T01:54:08;10.77;;;6.80;;
28926;SDS011;16038;47.692;9.400;2024-03-23T01:56:34;12.57;;;6.95;;
28926;SDS011;16038;47.692;9.400;2024-03-23T01:59:06;13.32;;;7.30;;
28926;SDS011;16038;47.692;9.400;2024-03-23T02:01:32;14.57;;;7.65;;
28926;SDS011;16038;47.692;9.400;2024-03-23T02:03:59;11.60;;;7.57;;
28926;SDS011;16038;47.692;9.400;2024-03-23T02:06:25;14.43;;;7.50;;
28926;SDS011;16038;47.692;9.400;2024-03-23T02:08:50;10.60;;;8.10;;
28926;SDS011;16038;47.692;9.400;2024-03-23T02:11:16;9.75;;;7.07;;
28926;SDS011;16038;47.692;9.400;2024-03-23T02:13:41;12.85;;;7.97;;
28926;SDS011;16038;47.692;9.400;2024-03-23T02:16:07;10.90;;;7.30;;
28926;SDS011;16038;47.692;9.400;2024-03-23T02:18:33;14.52;;;7.20;;
28926;SDS011;16038;47.692;9.400;2024-03-23T02:20:58;12.52;;;8.68;;
28926;SDS011;16038;47.692;9.400;2024-03-23T02:23:24;15.60;;;7.63;;
28926;SDS011;16038;47.692;9.400;2024-03-23T02:25:50;10.65;;;7.18;;
28926;SDS011;16038;47.692;9.400;2024-03-23T02:28:16;13.60;;;6.50;;
28926;SDS011;16038;47.692;9.400;2024-03-23T02:30:42;12.20;;;6.90;;
28926;SDS011;16038;47.692;9.400;2024-03-23T02:33:07;12.05;;;6.63;;
28926;SDS011;16038;47.692;9.400;2024-03-23T02:35:33;10.18;;;6.70;;
28926;SDS011;16038;47.692;9.400;2024-03-23T02:37:58;12.57;;;7.28;;
28926;SDS011;16038;47.692;9.400;2024-03-23T02:40:24;11.20;;;7.05;;
28926;SDS011;16038;47.692;9.400;2024-03-23T02:42:50;11.95;;;6.68;;
28926;SDS011;16038;47.692;9.400;2024-03-23T02:45:16;14.52;;;6.63;;
28926;SDS011;16038;47.692;9.400;2024-03-23T02:47:41;9.88;;;6.47;;
28926;SDS011;16038;47.692;9.400;2024-03-23T02:50:06;10.75;;;6.80;;
28926;SDS011;16038;47.692;9.400;2024-03-23T02:52:32;10.05;;;6.35;;
28926;SDS011;16038;47.692;9.400;2024-03-23T02:54:58;13.27;;;6.88;;
28926;SDS011;16038;47.692;9.400;2024-03-23T02:57:23;12.07;;;7.13;;
28926;SDS011;16038;47.692;9.400;2024-03-23T02:59:49;10.65;;;7.30;;
28926;SDS011;16038;47.692;9.400;2024-03-23T03:02:15;13.07;;;7.07;;
28926;SDS011;16038;47.692;9.400;2024-03-23T03:04:40;8.80;;;6.38;;
28926;SDS011;16038;47.692;9.400;2024-03-23T03:07:06;11.18;;;6.78;;
28926;SDS011;16038;47.692;9.400;2024-03-23T03:09:31;9.48;;;6.55;;
28926;SDS011;16038;47.692;9.400;2024-03-23T03:11:58;10.75;;;7.03;;
28926;SDS011;16038;47.692;9.400;2024-03-23T03:14:23;10.68;;;6.20;;
28926;SDS011;16038;47.692;9.400;2024-03-23T03:16:48;9.82;;;6.70;;
28926;SDS011;16038;47.692;9.400;2024-03-23T03:19:14;11.77;;;6.50;;
28926;SDS011;16038;47.692;9.400;2024-03-23T03:21:41;12.20;;;6.93;;
28926;SDS011;16038;47.692;9.400;2024-03-23T03:24:07;10.65;;;6.60;;
28926;SDS011;16038;47.692;9.400;2024-03-23T03:26:32;12.55;;;6.97;;
28926;SDS011;16038;47.692;9.400;2024-03-23T03:28:58;9.77;;;6.47;;
28926;SDS011;16038;47.692;9.400;2024-03-23T03:31:23;9.30;;;5.80;;
28926;SDS011;16038;47.692;9.400;2024-03-23T03:33:49;10.73;;;6.78;;
28926;SDS011;16038;47.692;9.400;2024-03-23T03:36:16;10.40;;;6.13;;
28926;SDS011;16038;47.692;9.400;2024-03-23T03:38:41;8.90;;;6.25;;
28926;SDS011;16038;47.692;9.400;2024-03-23T03:41:07;10.30;;;6.00;;
28926;SDS011;16038;47.692;9.400;2024-03-23T03:43:32;8.82;;;5.85;;
28926;SDS011;16038;47.692;9.400;2024-03-23T03:45:58;10.30;;;5.30;;
28926;SDS011;16038;47.692;9.400;2024-03-23T03:48:26;13.73;;;5.68;;
28926;SDS011;16038;47.692;9.400;2024-03-23T03:50:52;11.60;;;6.25;;
28926;SDS011;16038;47.692;9.400;2024-03-23T03:53:18;8.77;;;5.72;;
28926;SDS011;16038;47.692;9.400;2024-03-23T03:55:44;7.65;;;5.90;;
28926;SDS011;16038;47.692;9.400;2024-03-23T03:58:10;11.52;;;6.20;;
28926;SDS011;16038;47.692;9.400;2024-03-23T04:00:35;9.80;;;5.20;;
28926;SDS011;16038;47.692;9.400;2024-03-23T04:03:01;10.23;;;5.75;;
28926;SDS011;16038;47.692;9.400;2024-03-23T04:05:26;9.30;;;5.95;;
28926;SDS011;16038;47.692;9.400;2024-03-23T04:07:52;8.10;;;5.65;;
28926;SDS011;16038;47.692;9.400;2024-03-23T04:10:20;8.65;;;5.32;;
28926;SDS011;16038;47.692;9.400;2024-03-23T04:12:46;8.18;;;5.70;;
28926;SDS011;16038;47.692;9.400;2024-03-23T04:15:12;10.32;;;6.13;;
28926;SDS011;16038;47.692;9.400;2024-03-23T04:17:38;9.60;;;5.88;;
28926;SDS011;16038;47.692;9.400;2024-03-23T04:20:04;10.95;;;5.60;;
28926;SDS011;16038;47.692;9.400;2024-03-23T04:22:34;9.18;;;5.97;;
28926;SDS011;16038;47.692;9.400;2024-03-23T04:25:00;16.85;;;8.75;;
28926;SDS011;16038;47.692;9.400;2024-03-23T04:27:31;17.90;;;9.90;;
28926;SDS011;16038;47.692;9.400;2024-03-23T04:29:57;10.35;;;7.07;;
28926;SDS011;16038;47.692;9.400;2024-03-23T04:32:22;11.40;;;6.88;;
28926;SDS011;16038;47.692;9.400;2024-03-23T04:34:48;12.05;;;5.90;;
28926;SDS011;16038;47.692;9.400;2024-03-23T04:37:13;14.57;;;6.90;;
28926;SDS011;16038;47.692;9.400;2024-03-23T04:39:39;9.68;;;6.15;;
28926;SDS011;16038;47.692;9.400;2024-03-23T04:42:04;12.80;;;5.72;;
28926;SDS011;16038;47.692;9.400;2024-03-23T04:44:30;9.80;;;6.03;;
28926;SDS011;16038;47.692;9.400;2024-03-23T04:46:56;9.18;;;5.47;;
28926;SDS011;16038;47.692;9.400;2024-03-23T04:49:22;9.75;;;5.30;;
28926;SDS011;16038;47.692;9.400;2024-03-23T04:51:47;9.05;;;6.07;;
28926;SDS011;16038;47.692;9.400;2024-03-23T04:54:13;11.60;;;5.13;;
28926;SDS011;16038;47.692;9.400;2024-03-23T04:56:38;9.40;;;5.20;;
28926;SDS011;16038;47.692;9.400;2024-03-23T04:59:04;8.80;;;5.97;;
28926;SDS011;16038;47.692;9.400;2024-03-23T05:01:33;10.88;;;6.47;;
28926;SDS011;16038;47.692;9.400;2024-03-23T05:03:58;11.95;;;6.32;;
28926;SDS011;16038;47.692;9.400;2024-03-23T05:06:24;12.32;;;5.95;;
28926;SDS011;16038;47.692;9.400;2024-03-23T05:08:50;12.10;;;6.25;;
28926;SDS011;16038;47.692;9.400;2024-03-23T05:11:19;12.02;;;6.13;;
28926;SDS011;16038;47.692;9.400;2024-03-23T05:13:45;12.18;;;6.53;;
28926;SDS011;16038;47.692;9.400;2024-03-23T05:16:11;11.48;;;6.60;;
28926;SDS011;16038;47.692;9.400;2024-03-23T05:18:36;9.32;;;6.70;;
28926;SDS011;16038;47.692;9.400;2024-03-23T05:21:02;13.02;;;6.95;;
28926;SDS011;16038;47.692;9.400;2024-03-23T05:23:28;12.23;;;7.60;;
28926;SDS011;16038;47.692;9.400;2024-03-23T05:25:54;9.20;;;6.78;;
28926;SDS011;16038;47.692;9.400;2024-03-23T05:28:20;11.65;;;6.05;;
28926;SDS011;16038;47.692;9.400;2024-03-23T05:30:52;11.48;;;6.78;;
28926;SDS011;16038;47.692;9.400;2024-03-23T05:33:21;10.93;;;5.82;;
28926;SDS011;16038;47.692;9.400;2024-03-23T05:35:47;8.55;;;5.40;;
28926;SDS011;16038;47.692;9.400;2024-03-23T05:38:21;10.88;;;6.35;;
28926;SDS011;16038;47.692;9.400;2024-03-23T05:40:53;10.10;;;6.18;;
28926;SDS011;16038;47.692;9.400;2024-03-23T05:43:21;11.07;;;6.15;;
28926;SDS011;16038;47.692;9.400;2024-03-23T05:45:54;12.48;;;5.82;;
28926;SDS011;16038;47.692;9.400;2024-03-23T05:48:20;9.30;;;6.05;;
28926;SDS011;16038;47.692;9.400;2024-03-23T05:50:46;14.32;;;7.03;;
28926;SDS011;16038;47.692;9.400;2024-03-23T05:53:12;9.98;;;6.18;;
28926;SDS011;16038;47.692;9.400;2024-03-23T05:55:38;10.80;;;5.72;;
28926;SDS011;16038;47.692;9.400;2024-03-23T05:58:06;8.88;;;5.88;;
28926;SDS011;16038;47.692;9.400;2024-03-23T06:00:32;8.20;;;5.15;;
28926;SDS011;16038;47.692;9.400;2024-03-23T06:02:57;7.07;;;4.88;;
28926;SDS011;16038;47.692;9.400;2024-03-23T06:05:23;9.35;;;4.78;;
28926;SDS011;16038;47.692;9.400;2024-03-23T06:07:49;8.38;;;4.78;;
28926;SDS011;16038;47.692;9.400;2024-03-23T06:10:15;6.53;;;4.13;;
28926;SDS011;16038;47.692;9.400;2024-03-23T06:12:41;15.15;;;4.63;;
28926;SDS011;16038;47.692;9.400;2024-03-23T06:15:07;13.32;;;7.53;;
28926;SDS011;16038;47.692;9.400;2024-03-23T06:17:35;21.67;;;12.40;;
28926;SDS011;16038;47.692;9.400;2024-03-23T06:20:01;6.28;;;3.88;;
28926;SDS011;16038;47.692;9.400;2024-03-23T06:22:27;7.78;;;3.35;;
28926;SDS011;16038;47.692;9.400;2024-03-23T06:24:52;5.07;;;3.30;;
28926;SDS011;16038;47.692;9.400;2024-03-23T06:27:17;6.38;;;3.67;;
28926;SDS011;16038;47.692;9.400;2024-03-23T06:29:44;8.20;;;3.35;;
28926;SDS011;16038;47.692;9.400;2024-03-23T06:32:09;6.25;;;3.35;;
28926;SDS011;16038;47.692;9.400;2024-03-23T06:34:34;5.60;;;3.25;;
28926;SDS011;16038;47.692;9.400;2024-03-23T06:37:00;5.35;;;3.13;;
28926;SDS011;16038;47.692;9.400;2024-03-23T06:39:25;6.80;;;2.95;;
28926;SDS011;16038;47.692;9.400;2024-03-23T06:41:51;5.18;;;3.35;;
28926;SDS011;16038;47.692;9.400;2024-03-23T06:44:18;23.50;;;4.32;;
28926;SDS011;16038;47.692;9.400;2024-03-23T06:46:44;6.05;;;2.95;;
28926;SDS011;16038;47.692;9.400;2024-03-23T06:49:10;6.20;;;4.13;;
28926;SDS011;16038;47.692;9.400;2024-03-23T06:51:35;7.78;;;3.83;;
28926;SDS011;16038;47.692;9.400;2024-03-23T06:54:02;6.07;;;4.10;;
28926;SDS011;16038;47.692;9.400;2024-03-23T06:56:28;7.25;;;4.10;;
28926;SDS011;16038;47.692;9.400;2024-03-23T06:58:54;7.47;;;4.22;;
28926;SDS011;16038;47.692;9.400;2024-03-23T07:01:19;7.80;;;4.72;;
28926;SDS011;16038;47.692;9.400;2024-03-23T07:03:45;9.70;;;4.47;;
28926;SDS011;16038;47.692;9.400;2024-03-23T07:06:10;6.10;;;3.97;;
28926;SDS011;16038;47.692;9.400;2024-03-23T07:08:35;8.48;;;4.38;;
28926;SDS011;16038;47.692;9.400;2024-03-23T07:11:01;6.90;;;3.58;;
28926;SDS011;16038;47.692;9.400;2024-03-23T07:13:27;5.80;;;3.92;;
28926;SDS011;16038;47.692;9.400;2024-03-23T07:15:53;7.05;;;3.60;;
28926;SDS011;16038;47.692;9.400;2024-03-23T07:18:20;6.50;;;3.75;;
28926;SDS011;16038;47.692;9.400;2024-03-23T07:20:53;6.53;;;4.00;;
28926;SDS011;16038;47.692;9.400;2024-03-23T07:23:21;6.28;;;4.13;;
28926;SDS011;16038;47.692;9.400;2024-03-23T07:25:57;8.20;;;3.90;;
28926;SDS011;16038;47.692;9.400;2024-03-23T07:28:22;6.65;;;3.80;;
28926;SDS011;16038;47.692;9.400;2024-03-23T07:30:47;6.47;;;3.35;;
28926;SDS011;16038;47.692;9.400;2024-03-23T07:33:13;6.22;;;3.90;;
28926;SDS011;16038;47.692;9.400;2024-03-23T07:35:38;6.80;;;3.53;;
28926;SDS011;16038;47.692;9.400;2024-03-23T07:38:03;4.72;;;3.38;;
28926;SDS011;16038;47.692;9.400;2024-03-23T07:40:30;7.72;;;3.85;;
28926;SDS011;16038;47.692;9.400;2024-03-23T07:42:56;6.18;;;4.10;;
28926;SDS011;16038;47.692;9.400;2024-03-23T07:45:21;7.40;;;3.95;;
28926;SDS011;16038;47.692;9.400;2024-03-23T07:47:46;7.32;;;4.20;;
28926;SDS011;16038;47.692;9.400;2024-03-23T07:50:12;6.35;;;3.83;;
28926;SDS011;16038;47.692;9.400;2024-03-23T07:52:38;5.32;;;3.60;;
28926;SDS011;16038;47.692;9.400;2024-03-23T07:55:03;5.53;;;4.10;;
28926;SDS011;16038;47.692;9.400;2024-03-23T07:57:29;6.30;;;3.95;;
28926;SDS011;16038;47.692;9.400;2024-03-23T07:59:54;6.78;;;4.13;;
28926;SDS011;16038;47.692;9.400;2024-03-23T08:02:19;9.23;;;4.40;;
28926;SDS011;16038;47.692;9.400;2024-03-23T08:04:45;6.28;;;4.13;;
28926;SDS011;16038;47.692;9.400;2024-03-23T08:07:10;7.22;;;4.95;;
28926;SDS011;16038;47.692;9.400;2024-03-23T08:09:35;6.88;;;4.70;;
28926;SDS011;16038;47.692;9.400;2024-03-23T08:12:01;10.40;;;4.97;;
28926;SDS011;16038;47.692;9.400;2024-03-23T08:14:27;8.10;;;5.05;;
28926;SDS011;16038;47.692;9.400;2024-03-23T08:16:54;7.47;;;4.60;;
28926;SDS011;16038;47.692;9.400;2024-03-23T08:19:19;6.80;;;5.13;;
28926;SDS011;16038;47.692;9.400;2024-03-23T08:21:45;10.18;;;5.22;;
28926;SDS011;16038;47.692;9.400;2024-03-23T08:24:10;7.57;;;5.18;;
28926;SDS011;16038;47.692;9.400;2024-03-23T08:26:36;26.63;;;14.73;;
28926;SDS011;16038;47.692;9.400;2024-03-23T08:29:02;7.95;;;5.45;;
28926;SDS011;16038;47.692;9.400;2024-03-23T08:31:28;10.65;;;5.07;;
28926;SDS011;16038;47.692;9.400;2024-03-23T08:33:53;4.80;;;3.00;;
28926;SDS011;16038;47.692;9.400;2024-03-23T08:36:19;3.17;;;1.63;;
28926;SDS011;16038;47.692;9.400;2024-03-23T08:38:44;2.67;;;1.13;;
28926;SDS011;16038;47.692;9.400;2024-03-23T08:41:10;3.70;;;1.10;;
28926;SDS011;16038;47.692;9.400;2024-03-23T08:43:36;1.80;;;0.80;;
28926;SDS011;16038;47.692;9.400;2024-03-23T08:46:04;2.55;;;0.90;;
28926;SDS011;16038;47.692;9.400;2024-03-23T08:48:30;1.25;;;0.90;;
28926;SDS011;16038;47.692;9.400;2024-03-23T08:51:02;1.80;;;1.00;;
28926;SDS011;16038;47.692;9.400;2024-03-23T08:53:33;0.60;;;0.50;;
28926;SDS011;16038;47.692;9.400;2024-03-23T08:55:59;2.45;;;0.70;;
28926;SDS011;16038;47.692;9.400;2024-03-23T08:58:26;0.43;;;0.43;;
28926;SDS011;16038;47.692;9.400;2024-03-23T09:00:53;0.93;;;0.70;;
28926;SDS011;16038;47.692;9.400;2024-03-23T09:03:21;0.68;;;0.60;;
28926;SDS011;16038;47.692;9.400;2024-03-23T09:05:51;1.27;;;0.73;;
28926;SDS011;16038;47.692;9.400;2024-03-23T09:08:16;0.82;;;0.57;;
28926;SDS011;16038;47.692;9.400;2024-03-23T09:10:42;0.77;;;0.70;;
28926;SDS011;16038;47.692;9.400;2024-03-23T09:13:08;2.03;;;0.80;;
28926;SDS011;16038;47.692;9.400;2024-03-23T09:15:34;1.15;;;0.63;;
28926;SDS011;16038;47.692;9.400;2024-03-23T09:18:00;1.17;;;0.70;;
28926;SDS011;16038;47.692;9.400;2024-03-23T09:20:26;1.00;;;0.57;;
28926;SDS011;16038;47.692;9.400;2024-03-23T09:22:52;0.95;;;0.55;;
28926;SDS011;16038;47.692;9.400;2024-03-23T09:25:17;1.65;;;0.77;;
28926;SDS011;16038;47.692;9.400;2024-03-23T09:27:42;1.48;;;0.77;;
28926;SDS011;16038;47.692;9.400;2024-03-23T09:30:10;0.80;;;0.60;;
28926;SDS011;16038;47.692;9.400;2024-03-23T09:32:36;1.58;;;0.90;;
28926;SDS011;16038;47.692;9.400;2024-03-23T09:35:01;1.35;;;0.60;;
28926;SDS011;16038;47.692;9.400;2024-03-23T09:37:26;0.98;;;0.70;;
28926;SDS011;16038;47.692;9.400;2024-03-23T09:39:52;0.63;;;0.60;;
28926;SDS011;16038;47.692;9.400;2024-03-23T09:42:17;1.67;;;0.60;;
28926;SDS011;16038;47.692;9.400;2024-03-23T09:44:42;1.02;;;0.60;;
28926;SDS011;16038;47.692;9.400;2024-03-23T09:47:09;1.38;;;0.50;;
28926;SDS011;16038;47.692;9.400;2024-03-23T09:49:35;0.95;;;0.50;;
28926;SDS011;16038;47.692;9.400;2024-03-23T09:52:03;0.63;;;0.43;;
28926;SDS011;16038;47.692;9.400;2024-03-23T09:54:29;1.25;;;0.70;;
28926;SDS011;16038;47.692;9.400;2024-03-23T09:56:55;2.40;;;0.77;;
28926;SDS011;16038;47.692;9.400;2024-03-23T09:59:20;1.98;;;0.70;;
28926;SDS011;16038;47.692;9.400;2024-03-23T10:01:46;0.90;;;0.80;;
28926;SDS011;16038;47.692;9.400;2024-03-23T10:04:12;1.85;;;0.80;;
28926;SDS011;16038;47.692;9.400;2024-03-23T10:06:58;2.65;;;0.73;;
28926;SDS011;16038;47.692;9.400;2024-03-23T10:09:36;4.33;;;1.00;;
28926;SDS011;16038;47.692;9.400;2024-03-23T10:12:11;2.58;;;0.98;;
28926;SDS011;16038;47.692;9.400;2024-03-23T10:14:39;2.22;;;0.98;;
28926;SDS011;16038;47.692;9.400;2024-03-23T10:17:15;2.03;;;0.90;;
28926;SDS011;16038;47.692;9.400;2024-03-23T10:19:48;1.77;;;0.75;;
28926;SDS011;16038;47.692;9.400;2024-03-23T10:22:23;4.32;;;0.90;;
28926;SDS011;16038;47.692;9.400;2024-03-23T10:24:49;2.78;;;0.98;;
28926;SDS011;16038;47.692;9.400;2024-03-23T10:27:15;3.55;;;0.93;;
28926;SDS011;16038;47.692;9.400;2024-03-23T10:29:48;1.70;;;1.02;;
28926;SDS011;16038;47.692;9.400;2024-03-23T10:32:15;3.30;;;1.13;;
28926;SDS011;16038;47.692;9.400;2024-03-23T10:34:41;4.47;;;1.10;;
28926;SDS011;16038;47.692;9.400;2024-03-23T10:37:07;2.90;;;1.55;;
28926;SDS011;16038;47.692;9.400;2024-03-23T10:39:34;4.10;;;1.55;;
28926;SDS011;16038;47.692;9.400;2024-03-23T10:42:10;3.55;;;0.88;;
28926;SDS011;16038;47.692;9.400;2024-03-23T10:44:35;1.98;;;0.90;;
28926;SDS011;16038;47.692;9.400;2024-03-23T10:47:02;3.50;;;0.90;;
28926;SDS011;16038;47.692;9.400;2024-03-23T10:49:28;1.90;;;1.08;;
28926;SDS011;16038;47.692;9.400;2024-03-23T10:51:55;3.63;;;0.90;;
28926;SDS011;16038;47.692;9.400;2024-03-23T10:54:24;4.22;;;0.90;;
28926;SDS011;16038;47.692;9.400;2024-03-23T10:56:52;1.85;;;0.70;;
28926;SDS011;16038;47.692;9.400;2024-03-23T10:59:25;1.52;;;0.88;;
28926;SDS011;16038;47.692;9.400;2024-03-23T11:01:54;4.22;;;1.00;;
28926;SDS011;16038;47.692;9.400;2024-03-23T11:04:33;3.03;;;1.13;;
28926;SDS011;16038;47.692;9.400;2024-03-23T11:06:59;6.85;;;3.10;;
28926;SDS011;16038;47.692;9.400;2024-03-23T11:14:51;1.15;;;0.82;;
28926;SDS011;16038;47.692;9.400;2024-03-23T11:17:19;3.45;;;1.60;;
28926;SDS011;16038;47.692;9.400;2024-03-23T11:19:57;3.40;;;1.30;;
28926;SDS011;16038;47.692;9.400;2024-03-23T11:22:40;2.90;;;0.93;;
28926;SDS011;16038;47.692;9.400;2024-03-23T11:27:37;4.55;;;1.25;;
28926;SDS011;16038;47.692;9.400;2024-03-23T11:30:22;6.75;;;1.50;;
28926;SDS011;16038;47.692;9.400;2024-03-23T11:32:49;5.53;;;1.52;;
28926;SDS011;16038;47.692;9.400;2024-03-23T11:38:11;8.40;;;1.70;;
28926;SDS011;16038;47.692;9.400;2024-03-23T11:40:37;6.55;;;1.45;;
28926;SDS011;16038;47.692;9.400;2024-03-23T11:43:05;7.68;;;1.75;;
28926;SDS011;16038;47.692;9.400;2024-03-23T11:45:35;9.18;;;2.40;;
28926;SDS011;16038;47.692;9.400;2024-03-23T11:48:02;8.52;;;1.83;;
28926;SDS011;16038;47.692;9.400;2024-03-23T11:50:36;6.22;;;1.60;;
28926;SDS011;16038;47.692;9.400;2024-03-23T11:53:22;4.55;;;1.48;;
28926;SDS011;16038;47.692;9.400;2024-03-23T11:55:53;7.45;;;1.92;;
28926;SDS011;16038;47.692;9.400;2024-03-23T11:58:23;5.22;;;1.52;;
28926;SDS011;16038;47.692;9.400;2024-03-23T12:00:55;13.95;;;4.90;;
28926;SDS011;16038;47.692;9.400;2024-03-23T12:03:22;6.97;;;2.20;;
28926;SDS011;16038;47.692;9.400;2024-03-23T12:05:51;7.10;;;1.90;;
28926;SDS011;16038;47.692;9.400;2024-03-23T12:08:19;6.45;;;1.30;;
28926;SDS011;16038;47.692;9.400;2024-03-23T12:10:50;5.68;;;1.30;;
28926;SDS011;16038;47.692;9.400;2024-03-23T12:13:18;9.13;;;1.67;;
28926;SDS011;16038;47.692;9.400;2024-03-23T12:15:44;6.47;;;1.45;;
28926;SDS011;16038;47.692;9.400;2024-03-23T12:18:11;6.45;;;1.55;;
28926;SDS011;16038;47.692;9.400;2024-03-23T12:20:37;7.45;;;2.03;;
28926;SDS011;16038;47.692;9.400;2024-03-23T12:23:10;8.35;;;1.63;;
28926;SDS011;16038;47.692;9.400;2024-03-23T12:25:37;7.05;;;1.48;;
28926;SDS011;16038;47.692;9.400;2024-03-23T12:28:06;6.82;;;1.70;;
28926;SDS011;16038;47.692;9.400;2024-03-23T12:30:33;10.13;;;1.92;;
28926;SDS011;16038;47.692;9.400;2024-03-23T12:32:59;4.95;;;1.48;;
28926;SDS011;16038;47.692;9.400;2024-03-23T12:35:24;13.02;;;1.88;;
28926;SDS011;16038;47.692;9.400;2024-03-23T12:37:50;6.07;;;1.58;;
28926;SDS011;16038;47.692;9.400;2024-03-23T12:40:15;6.85;;;1.50;;
28926;SDS011;16038;47.692;9.400;2024-03-23T12:42:40;5.13;;;1.38;;
28926;SDS011;16038;47.692;9.400;2024-03-23T12:45:06;7.97;;;2.08;;
28926;SDS011;16038;47.692;9.400;2024-03-23T12:47:32;5.70;;;1.70;;
28926;SDS011;16038;47.692;9.400;2024-03-23T12:49:57;8.77;;;2.05;;
28926;SDS011;16038;47.692;9.400;2024-03-23T12:52:22;10.60;;;2.03;;
28926;SDS011;16038;47.692;9.400;2024-03-23T12:54:53;6.88;;;2.00;;
28926;SDS011;16038;47.692;9.400;2024-03-23T12:57:21;11.45;;;1.65;;
28926;SDS011;16038;47.692;9.400;2024-03-23T12:59:47;8.52;;;2.08;;
28926;SDS011;16038;47.692;9.400;2024-03-23T13:02:16;6.60;;;1.88;;
28926;SDS011;16038;47.692;9.400;2024-03-23T13:04:42;6.25;;;1.40;;
28926;SDS011;16038;47.692;9.400;2024-03-23T13:07:07;4.43;;;1.10;;
28926;SDS011;16038;47.692;9.400;2024-03-23T13:09:33;3.67;;;1.25;;
28926;SDS011;16038;47.692;9.400;2024-03-23T13:11:58;5.70;;;1.02;;
28926;SDS011;16038;47.692;9.400;2024-03-23T13:14:24;2.20;;;0.93;;
28926;SDS011;16038;47.692;9.400;2024-03-23T13:16:49;1.73;;;0.80;;
28926;SDS011;16038;47.692;9.400;2024-03-23T13:19:15;3.00;;;0.88;;
28926;SDS011;16038;47.692;9.400;2024-03-23T13:21:40;1.83;;;1.10;;
28926;SDS011;16038;47.692;9.400;2024-03-23T13:24:06;3.05;;;0.80;;
28926;SDS011;16038;47.692;9.400;2024-03-23T13:26:31;4.30;;;1.00;;
28926;SDS011;16038;47.692;9.400;2024-03-23T13:28:56;1.35;;;0.70;;
28926;SDS011;16038;47.692;9.400;2024-03-23T13:31:22;1.85;;;0.98;;
28926;SDS011;16038;47.692;9.400;2024-03-23T13:33:47;4.53;;;0.90;;
28926;SDS011;16038;47.692;9.400;2024-03-23T13:36:13;5.20;;;1.45;;
28926;SDS011;16038;47.692;9.400;2024-03-23T13:38:38;4.38;;;1.05;;
28926;SDS011;16038;47.692;9.400;2024-03-23T13:41:04;3.13;;;0.80;;
28926;SDS011;16038;47.692;9.400;2024-03-23T13:43:31;4.07;;;1.17;;
28926;SDS011;16038;47.692;9.400;2024-03-23T13:45:57;1.92;;;1.02;;
28926;SDS011;16038;47.692;9.400;2024-03-23T13:48:24;4.53;;;1.40;;
28926;SDS011;16038;47.692;9.400;2024-03-23T13:51:00;5.75;;;2.00;;
28926;SDS011;16038;47.692;9.400;2024-03-23T13:53:26;5.20;;;1.30;;
28926;SDS011;16038;47.692;9.400;2024-03-23T13:55:51;7.70;;;2.85;;
28926;SDS011;16038;47.692;9.400;2024-03-23T13:58:18;5.07;;;1.40;;
28926;SDS011;16038;47.692;9.400;2024-03-23T14:00:43;3.92;;;1.17;;
28926;SDS011;16038;47.692;9.400;2024-03-23T14:03:09;5.60;;;1.00;;
28926;SDS011;16038;47.692;9.400;2024-03-23T14:05:35;6.22;;;1.27;;
28926;SDS011;16038;47.692;9.400;2024-03-23T14:08:03;7.43;;;1.45;;
28926;SDS011;16038;47.692;9.400;2024-03-23T14:10:32;7.03;;;1.65;;
28926;SDS011;16038;47.692;9.400;2024-03-23T14:12:57;5.82;;;1.30;;
28926;SDS011;16038;47.692;9.400;2024-03-23T14:15:25;4.43;;;1.10;;
28926;SDS011;16038;47.692;9.400;2024-03-23T14:17:51;6.53;;;1.65;;
28926;SDS011;16038;47.692;9.400;2024-03-23T14:20:16;7.25;;;1.63;;
28926;SDS011;16038;47.692;9.400;2024-03-23T14:22:42;9.23;;;1.38;;
28926;SDS011;16038;47.692;9.400;2024-03-23T14:25:08;7.43;;;1.60;;
28926;SDS011;16038;47.692;9.400;2024-03-23T14:27:34;7.05;;;1.52;;
28926;SDS011;16038;47.692;9.400;2024-03-23T14:30:03;6.07;;;1.45;;
28926;SDS011;16038;47.692;9.400;2024-03-23T14:32:30;10.00;;;1.63;;
28926;SDS011;16038;47.692;9.400;2024-03-23T14:34:59;8.87;;;1.83;;
28926;SDS011;16038;47.692;9.400;2024-03-23T14:37:32;6.10;;;1.92;;
28926;SDS011;16038;47.692;9.400;2024-03-23T14:39:58;5.57;;;1.70;;
28926;SDS011;16038;47.692;9.400;2024-03-23T14:42:24;5.43;;;2.00;;
28926;SDS011;16038;47.692;9.400;2024-03-23T14:44:50;6.10;;;1.20;;
28926;SDS011;16038;47.692;9.400;2024-03-23T14:47:16;4.35;;;1.48;;
28926;SDS011;16038;47.692;9.400;2024-03-23T14:49:42;7.60;;;2.35;;
28926;SDS011;16038;47.692;9.400;2024-03-23T14:52:12;8.73;;;1.40;;
28926;SDS011;16038;47.692;9.400;2024-03-23T14:54:38;6.50;;;1.20;;
28926;SDS011;16038;47.692;9.400;2024-03-23T14:57:04;7.43;;;1.50;;
28926;SDS011;16038;47.692;9.400;2024-03-23T14:59:29;3.35;;;1.30;;
28926;SDS011;16038;47.692;9.400;2024-03-23T15:01:55;4.85;;;1.00;;
28926;SDS011;16038;47.692;9.400;2024-03-23T15:04:20;5.95;;;1.60;;
28926;SDS011;16038;47.692;9.400;2024-03-23T15:06:46;3.17;;;1.10;;
28926;SDS011;16038;47.692;9.400;2024-03-23T15:09:14;8.13;;;1.60;;
28926;SDS011;16038;47.692;9.400;2024-03-23T15:11:40;5.53;;;1.20;;
28926;SDS011;16038;47.692;9.400;2024-03-23T15:14:05;5.18;;;1.30;;
28926;SDS011;16038;47.692;9.400;2024-03-23T15:16:32;8.15;;;1.20;;
28926;SDS011;16038;47.692;9.400;2024-03-23T15:18:58;3.95;;;1.50;;
28926;SDS011;16038;47.692;9.400;2024-03-23T15:21:23;5.25;;;1.52;;
28926;SDS011;16038;47.692;9.400;2024-03-23T15:23:49;4.20;;;1.40;;
28926;SDS011;16038;47.692;9.400;2024-03-23T15:26:14;9.48;;;1.50;;
28926;SDS011;16038;47.692;9.400;2024-03-23T15:28:41;5.95;;;1.63;;
28926;SDS011;16038;47.692;9.400;2024-03-23T15:31:08;4.80;;;1.13;;
28926;SDS011;16038;47.692;9.400;2024-03-23T15:33:34;5.32;;;1.38;;
28926;SDS011;16038;47.692;9.400;2024-03-23T15:36:00;5.30;;;1.30;;
28926;SDS011;16038;47.692;9.400;2024-03-23T15:38:26;5.75;;;1.27;;
28926;SDS011;16038;47.692;9.400;2024-03-23T15:40:51;6.72;;;1.35;;
28926;SDS011;16038;47.692;9.400;2024-03-23T15:43:17;8.32;;;1.60;;
28926;SDS011;16038;47.692;9.400;2024-03-23T15:45:43;9.13;;;1.50;;